Terminal Aerodrome Forecast
Issued by NWS

Home | Current Version | Previous Version | Text Only | Print | Product List | Glossary On
Versions: 1 2 3 4 5 6 7 8 9 10 11 12 13 14 15 16 17 18 19 20
000
FTUS44 KHGX 242329
TAFCXO
TAF
KCXO 242329Z 2500/2524 VRB04KT P6SM BKN040
     FM250700 VRB02KT 3SM BR FEW040
     FM251100 00000KT 1SM BR BCFG FEW050
     FM251400 08005KT P6SM SCT015
     FM251700 10006KT P6SM SKC=

USA.gov is the U.S. government's official web portal to all federal, state and local government web resources and services.